Time;durP1;ratioP1;P1;durP2;ratioP2;P2;SDS_P1;SDS_P2;PMS_P1;PMS_P2;Temp;Humidity;BMP_temperature;BMP_pressure;BME280_temperature;BME280_humidity;BME280_pressure;Samples;Min_cycle;Max_cycle;Signal;HPM_P1;HPM_P2
2023/12/05 11:56:19;;;;;;;4.53;3.20;;;;;;;;;;5105746;27;20397;-65
2023/12/05 11:58:44;;;;;;;6.47;3.20;;;;;;;;;;5110152;28;20112;-67
2023/12/05 12:01:14;;;;;;;11.52;3.03;;;;;;;;;;5110319;28;20052;-66
2023/12/05 12:03:53;;;;;;;15.48;3.88;;;;;;;;;;5110304;28;20379;-66
2023/12/05 12:06:21;;;;;;;6.55;4.18;;;;;;;;;;5107464;28;20033;-66
2023/12/05 12:08:49;;;;;;;4.25;3.13;;;;;;;;;;5089527;28;20032;-67
2023/12/05 12:11:15;;;;;;;8.20;4.22;;;;;;;;;;5088772;28;20060;-67
2023/12/05 12:13:40;;;;;;;6.07;3.90;;;;;;;;;;5088721;28;20476;-67
2023/12/05 12:16:06;;;;;;;4.78;3.67;;;;;;;;;;5086271;28;20025;-67
2023/12/05 12:18:32;;;;;;;6.03;4.00;;;;;;;;;;5087307;28;20027;-67
2023/12/05 12:20:59;;;;;;;6.43;4.07;;;;;;;;;;5087327;28;20474;-66
2023/12/05 12:23:25;;;;;;;6.53;4.47;;;;;;;;;;5088465;28;20024;-67
2023/12/05 12:25:53;;;;;;;6.60;4.93;;;;;;;;;;5088670;28;20028;-67
2023/12/05 12:28:35;;;;;;;6.40;5.00;;;;;;;;;;5088767;28;20062;-67
2023/12/05 12:31:02;;;;;;;8.20;5.13;;;;;;;;;;5088768;28;20029;-67
2023/12/05 12:33:40;;;;;;;7.25;5.05;;;;;;;;;;5089311;28;20021;-68
2023/12/05 12:36:10;;;;;;;8.32;4.97;;;;;;;;;;5089443;28;20082;-69
2023/12/05 12:38:38;;;;;;;7.55;5.13;;;;;;;;;;5089487;28;20020;-67
2023/12/05 12:41:04;;;;;;;8.57;5.03;;;;;;;;;;5089468;28;20086;-67
2023/12/05 12:43:30;;;;;;;6.43;4.97;;;;;;;;;;5089376;28;20023;-67
2023/12/05 12:45:56;;;;;;;7.35;5.55;;;;;;;;;;5089147;28;20021;-67
2023/12/05 12:48:22;;;;;;;8.18;5.63;;;;;;;;;;5089088;28;20035;-68
2023/12/05 12:50:48;;;;;;;6.72;5.15;;;;;;;;;;5089166;28;20103;-67
2023/12/05 12:53:14;;;;;;;10.00;5.38;;;;;;;;;;5088381;28;20016;-66
2023/12/05 12:55:39;;;;;;;7.65;5.43;;;;;;;;;;5088825;28;20094;-67
2023/12/05 12:58:05;;;;;;;8.43;5.55;;;;;;;;;;5088932;28;20405;-67
2023/12/05 13:00:39;;;;;;;6.35;5.22;;;;;;;;;;5088730;28;20103;-66
2023/12/05 13:03:09;;;;;;;8.50;5.80;;;;;;;;;;5088864;28;20491;-67
2023/12/05 13:05:36;;;;;;;6.07;5.23;;;;;;;;;;5087562;28;20032;-67
2023/12/05 13:08:05;;;;;;;8.32;5.75;;;;;;;;;;5075520;28;20077;-67
2023/12/05 13:10:31;;;;;;;7.43;5.68;;;;;;;;;;5075215;28;20029;-67
2023/12/05 13:13:02;;;;;;;7.18;6.38;;;;;;;;;;5075339;28;20302;-67
2023/12/05 13:15:29;;;;;;;6.95;5.07;;;;;;;;;;5075429;28;20078;-67
2023/12/05 13:18:08;;;;;;;10.43;5.50;;;;;;;;;;5074968;28;20024;-69
2023/12/05 13:20:55;;;;;;;6.68;5.47;;;;;;;;;;5075074;28;20056;-67
2023/12/05 13:23:21;;;;;;;6.70;5.57;;;;;;;;;;5074894;28;20035;-66
2023/12/05 13:25:47;;;;;;;8.88;6.20;;;;;;;;;;5074871;28;20033;-66
2023/12/05 13:28:13;;;;;;;7.88;5.75;;;;;;;;;;5075074;28;20025;-67
2023/12/05 13:30:39;;;;;;;10.95;5.75;;;;;;;;;;5074741;28;20393;-66
2023/12/05 13:33:06;;;;;;;7.57;5.68;;;;;;;;;;5075261;28;20055;-67
2023/12/05 13:35:32;;;;;;;8.20;5.75;;;;;;;;;;5074651;28;20468;-67
2023/12/05 13:37:58;;;;;;;7.13;5.88;;;;;;;;;;5075320;28;20043;-67
2023/12/05 13:40:23;;;;;;;6.20;5.25;;;;;;;;;;5074801;28;20484;-66
2023/12/05 13:42:49;;;;;;;8.40;5.70;;;;;;;;;;5074863;28;20081;-67
2023/12/05 13:45:14;;;;;;;7.10;5.38;;;;;;;;;;5074449;28;20500;-67
2023/12/05 13:47:40;;;;;;;6.70;5.47;;;;;;;;;;5074521;28;20021;-69
2023/12/05 13:50:06;;;;;;;6.90;5.47;;;;;;;;;;5074302;28;20017;-67
2023/12/05 13:52:32;;;;;;;7.53;5.75;;;;;;;;;;5074866;28;20020;-67
2023/12/05 13:54:58;;;;;;;9.35;5.55;;;;;;;;;;5074510;28;20044;-67
2023/12/05 13:57:24;;;;;;;7.68;5.63;;;;;;;;;;5074647;28;20024;-67
2023/12/05 13:59:51;;;;;;;5.75;5.03;;;;;;;;;;5074597;28;20028;-67
2023/12/05 14:02:17;;;;;;;7.57;5.75;;;;;;;;;;5074246;28;20078;-67
2023/12/05 14:04:43;;;;;;;6.25;5.40;;;;;;;;;;5074057;28;20072;-67
2023/12/05 14:07:09;;;;;;;7.63;5.97;;;;;;;;;;5074164;28;20362;-67
2023/12/05 14:09:35;;;;;;;8.20;5.60;;;;;;;;;;5074061;28;20025;-67
2023/12/05 14:12:00;;;;;;;6.13;4.95;;;;;;;;;;5073957;28;20074;-67
2023/12/05 14:14:26;;;;;;;6.68;5.40;;;;;;;;;;5074341;28;20028;-67
2023/12/05 14:16:51;;;;;;;7.30;5.50;;;;;;;;;;5074171;28;20054;-67
2023/12/05 14:19:17;;;;;;;7.82;5.20;;;;;;;;;;5072830;28;20024;-67
2023/12/05 14:21:43;;;;;;;7.00;5.13;;;;;;;;;;5073860;28;20029;-67
2023/12/05 14:24:08;;;;;;;7.22;5.88;;;;;;;;;;5078721;28;20251;-68
2023/12/05 14:26:34;;;;;;;7.97;6.30;;;;;;;;;;5090962;28;20043;-68
2023/12/05 14:28:59;;;;;;;7.13;5.13;;;;;;;;;;5093903;28;20028;-69
2023/12/05 14:31:25;;;;;;;7.60;5.55;;;;;;;;;;5091252;28;20370;-68
2023/12/05 14:33:51;;;;;;;6.78;5.07;;;;;;;;;;5092388;28;20688;-71
2023/12/05 14:36:16;;;;;;;7.53;5.50;;;;;;;;;;5085131;28;20032;-69
2023/12/05 14:38:42;;;;;;;10.88;5.68;;;;;;;;;;5092323;28;20047;-70
2023/12/05 14:41:07;;;;;;;5.78;5.05;;;;;;;;;;5091038;28;20056;-69
2023/12/05 14:43:33;;;;;;;8.57;5.57;;;;;;;;;;5092419;28;20035;-67
2023/12/05 14:45:59;;;;;;;7.95;5.47;;;;;;;;;;5092491;28;20024;-68
2023/12/05 14:48:24;;;;;;;7.63;6.22;;;;;;;;;;5093477;28;20035;-68
2023/12/05 14:50:50;;;;;;;10.10;5.72;;;;;;;;;;5092252;28;20023;-69
2023/12/05 14:53:16;;;;;;;7.57;5.93;;;;;;;;;;5093328;28;20032;-69
2023/12/05 14:55:43;;;;;;;10.70;5.82;;;;;;;;;;5093151;28;20040;-69
2023/12/05 14:58:09;;;;;;;10.27;6.40;;;;;;;;;;5093560;28;20067;-68
2023/12/05 15:00:35;;;;;;;16.13;5.95;;;;;;;;;;5093465;28;20055;-67
2023/12/05 15:03:00;;;;;;;11.27;5.70;;;;;;;;;;5092010;28;20051;-68
2023/12/05 15:05:26;;;;;;;10.13;5.95;;;;;;;;;;5091034;28;20020;-70
2023/12/05 15:07:52;;;;;;;12.38;5.70;;;;;;;;;;5091582;28;20031;-69
2023/12/05 15:10:18;;;;;;;11.38;5.32;;;;;;;;;;5092315;28;20031;-69
2023/12/05 15:12:54;;;;;;;9.10;5.72;;;;;;;;;;5090904;28;20016;-69
2023/12/05 15:15:23;;;;;;;8.25;6.03;;;;;;;;;;5091653;28;20077;-70
2023/12/05 15:17:49;;;;;;;7.18;5.70;;;;;;;;;;5090268;28;20583;-69
2023/12/05 15:20:15;;;;;;;10.48;6.45;;;;;;;;;;5090460;28;20115;-68
2023/12/05 15:22:45;;;;;;;15.40;5.90;;;;;;;;;;5092557;28;20063;-69
2023/12/05 15:25:10;;;;;;;10.95;5.97;;;;;;;;;;5091072;28;20036;-67
2023/12/05 15:27:36;;;;;;;8.82;6.20;;;;;;;;;;5091681;28;20077;-70
2023/12/05 15:30:03;;;;;;;10.88;5.82;;;;;;;;;;5092397;28;20020;-70
2023/12/05 15:32:28;;;;;;;13.00;5.70;;;;;;;;;;5090907;28;20379;-70
2023/12/05 15:34:54;;;;;;;9.30;5.40;;;;;;;;;;5093058;28;20016;-68
2023/12/05 15:37:19;;;;;;;8.27;6.20;;;;;;;;;;5091055;28;20464;-69
2023/12/05 15:39:45;;;;;;;11.88;6.25;;;;;;;;;;5090122;28;20050;-69
2023/12/05 15:42:11;;;;;;;10.43;6.18;;;;;;;;;;5090690;28;20033;-68
2023/12/05 15:44:36;;;;;;;8.80;5.78;;;;;;;;;;5091316;28;20132;-68
2023/12/05 15:47:05;;;;;;;9.07;5.80;;;;;;;;;;5091005;28;20039;-68
2023/12/05 15:49:31;;;;;;;12.25;6.63;;;;;;;;;;5091260;28;20028;-69
2023/12/05 15:51:56;;;;;;;9.80;5.93;;;;;;;;;;5090929;28;20072;-68
2023/12/05 15:54:22;;;;;;;10.07;6.63;;;;;;;;;;5090443;28;20055;-68
2023/12/05 15:56:49;;;;;;;11.43;6.75;;;;;;;;;;5090933;28;20463;-68
2023/12/05 15:59:16;;;;;;;11.18;7.35;;;;;;;;;;5090826;28;20493;-68
2023/12/05 16:01:43;;;;;;;12.68;7.75;;;;;;;;;;5090908;28;20032;-68
2023/12/05 16:04:09;;;;;;;15.07;7.97;;;;;;;;;;5090811;28;20061;-71
2023/12/05 16:06:34;;;;;;;12.80;7.57;;;;;;;;;;5091154;28;20028;-70
2023/12/05 16:09:00;;;;;;;14.63;7.80;;;;;;;;;;5090912;28;20369;-69
2023/12/05 16:11:25;;;;;;;10.32;6.93;;;;;;;;;;5090867;28;20034;-71
2023/12/05 16:13:52;;;;;;;13.38;7.53;;;;;;;;;;5090929;28;20107;-70
2023/12/05 16:16:18;;;;;;;16.00;7.88;;;;;;;;;;5091116;28;20036;-69
2023/12/05 16:18:43;;;;;;;14.18;7.82;;;;;;;;;;5090979;28;20101;-69
2023/12/05 16:21:09;;;;;;;14.90;7.50;;;;;;;;;;5090873;28;20052;-70
2023/12/05 16:23:37;;;;;;;16.17;8.38;;;;;;;;;;5090772;28;20102;-71
2023/12/05 16:26:03;;;;;;;14.85;7.40;;;;;;;;;;5090312;28;20039;-69
2023/12/05 16:28:29;;;;;;;13.98;7.10;;;;;;;;;;5090488;28;20031;-71
2023/12/05 16:30:55;;;;;;;15.15;7.63;;;;;;;;;;5090789;28;20028;-70
2023/12/05 16:33:20;;;;;;;20.60;7.80;;;;;;;;;;5090804;28;20628;-71
2023/12/05 16:35:46;;;;;;;13.15;7.55;;;;;;;;;;5090332;28;20047;-72
2023/12/05 16:38:11;;;;;;;17.85;7.90;;;;;;;;;;5090753;28;20028;-71
2023/12/05 16:40:38;;;;;;;12.15;7.55;;;;;;;;;;5090560;28;20020;-71
2023/12/05 16:43:04;;;;;;;13.15;7.47;;;;;;;;;;5094363;28;20020;-71
2023/12/05 16:45:30;;;;;;;14.05;7.20;;;;;;;;;;5094514;28;20034;-71
2023/12/05 16:47:58;;;;;;;12.27;7.63;;;;;;;;;;5094262;28;20384;-71
2023/12/05 16:50:26;;;;;;;13.57;7.50;;;;;;;;;;5094237;28;20103;-71
2023/12/05 16:52:51;;;;;;;11.35;6.95;;;;;;;;;;5094117;28;20031;-75
2023/12/05 16:55:17;;;;;;;15.57;7.20;;;;;;;;;;5092589;28;20044;-70
2023/12/05 16:57:43;;;;;;;14.20;8.15;;;;;;;;;;5090997;28;20138;-70
2023/12/05 17:00:09;;;;;;;11.82;6.93;;;;;;;;;;5092464;28;20048;-70
2023/12/05 17:02:34;;;;;;;15.73;8.10;;;;;;;;;;5094105;28;20028;-70
2023/12/05 17:05:02;;;;;;;14.63;7.78;;;;;;;;;;5092915;28;20469;-70
2023/12/05 17:07:27;;;;;;;13.52;7.05;;;;;;;;;;5094389;28;20020;-71
2023/12/05 17:09:53;;;;;;;14.05;7.57;;;;;;;;;;5093866;28;20043;-70
2023/12/05 17:12:18;;;;;;;13.32;7.20;;;;;;;;;;5094148;28;20039;-70
2023/12/05 17:14:44;;;;;;;10.20;6.40;;;;;;;;;;5093827;28;20032;-70
2023/12/05 17:17:11;;;;;;;13.55;7.05;;;;;;;;;;5094318;28;20032;-70
2023/12/05 17:19:37;;;;;;;16.35;6.95;;;;;;;;;;5093707;28;20036;-70
2023/12/05 17:22:03;;;;;;;12.63;7.15;;;;;;;;;;5093630;28;20150;-70
2023/12/05 17:24:29;;;;;;;15.45;8.20;;;;;;;;;;5093365;28;20028;-69
2023/12/05 17:26:54;;;;;;;16.55;7.13;;;;;;;;;;5093983;28;20383;-70
2023/12/05 17:29:20;;;;;;;12.07;6.57;;;;;;;;;;5093313;28;20019;-71
2023/12/05 17:31:45;;;;;;;15.35;7.28;;;;;;;;;;5093686;28;20115;-70
2023/12/05 17:34:11;;;;;;;11.20;7.03;;;;;;;;;;5093797;28;20460;-72
2023/12/05 17:36:36;;;;;;;17.13;7.13;;;;;;;;;;5093338;28;20539;-70
2023/12/05 17:39:02;;;;;;;15.15;8.70;;;;;;;;;;5093767;28;20054;-70
2023/12/05 17:41:28;;;;;;;12.10;7.38;;;;;;;;;;5093282;28;20450;-71
2023/12/05 17:43:53;;;;;;;14.90;7.50;;;;;;;;;;5093442;28;20030;-70
2023/12/05 17:46:19;;;;;;;16.48;7.95;;;;;;;;;;5093301;28;20383;-69
2023/12/05 17:48:44;;;;;;;16.90;8.43;;;;;;;;;;5093580;28;20450;-70
2023/12/05 17:51:10;;;;;;;26.17;8.43;;;;;;;;;;5092968;28;20480;-71
2023/12/05 17:53:37;;;;;;;16.20;8.30;;;;;;;;;;5092850;28;20031;-70
2023/12/05 17:56:04;;;;;;;17.77;8.20;;;;;;;;;;5093395;28;20143;-72
2023/12/05 17:58:29;;;;;;;16.85;7.60;;;;;;;;;;5093056;28;20051;-72
2023/12/05 18:00:55;;;;;;;15.88;7.90;;;;;;;;;;5093224;28;20036;-69
2023/12/05 18:03:20;;;;;;;18.33;8.85;;;;;;;;;;5092957;28;20024;-69
2023/12/05 18:05:46;;;;;;;19.55;7.97;;;;;;;;;;5092851;28;20050;-70
2023/12/05 18:08:11;;;;;;;16.17;8.13;;;;;;;;;;5092698;28;20032;-69
2023/12/05 18:10:37;;;;;;;17.58;8.57;;;;;;;;;;5092119;28;20024;-70
2023/12/05 18:13:03;;;;;;;14.48;8.63;;;;;;;;;;5090644;28;20028;-70
2023/12/05 18:15:29;;;;;;;21.33;9.40;;;;;;;;;;5092923;28;20032;-68
2023/12/05 18:17:55;;;;;;;14.27;9.02;;;;;;;;;;5092898;28;20035;-68
2023/12/05 18:20:20;;;;;;;14.57;8.60;;;;;;;;;;5092512;28;20740;-69
2023/12/05 18:22:46;;;;;;;12.20;7.78;;;;;;;;;;5091765;28;20065;-67
2023/12/05 18:25:12;;;;;;;21.33;9.45;;;;;;;;;;5092246;28;20468;-67
2023/12/05 18:27:38;;;;;;;19.55;9.73;;;;;;;;;;5092622;28;20040;-67
2023/12/05 18:30:06;;;;;;;20.50;9.52;;;;;;;;;;5092277;28;20422;-67
2023/12/05 18:32:32;;;;;;;16.48;9.00;;;;;;;;;;5092370;28;20024;-68
2023/12/05 18:34:57;;;;;;;24.95;9.32;;;;;;;;;;5092475;28;20388;-69
2023/12/05 18:37:23;;;;;;;18.33;9.90;;;;;;;;;;5092627;28;20024;-68
2023/12/05 18:39:49;;;;;;;22.23;9.55;;;;;;;;;;5092099;28;20020;-68
2023/12/05 18:42:14;;;;;;;17.25;8.75;;;;;;;;;;5092528;28;20027;-70
2023/12/05 18:44:40;;;;;;;18.60;8.98;;;;;;;;;;5091968;28;20532;-69
2023/12/05 18:47:05;;;;;;;22.85;10.13;;;;;;;;;;5092079;28;20027;-69
2023/12/05 18:49:31;;;;;;;20.95;9.25;;;;;;;;;;5091785;28;20031;-69
2023/12/05 18:51:57;;;;;;;16.27;8.60;;;;;;;;;;5091950;28;20035;-68
2023/12/05 18:54:22;;;;;;;17.88;9.60;;;;;;;;;;5091721;28;20058;-68
2023/12/05 18:56:48;;;;;;;18.33;8.93;;;;;;;;;;5091868;28;20051;-68
2023/12/05 18:59:13;;;;;;;16.30;8.77;;;;;;;;;;5091931;28;20077;-69
2023/12/05 19:01:39;;;;;;;20.60;8.32;;;;;;;;;;5091548;28;20028;-68
2023/12/05 19:04:04;;;;;;;16.88;8.88;;;;;;;;;;5090972;28;20036;-68
2023/12/05 19:06:30;;;;;;;16.92;8.60;;;;;;;;;;5091963;28;20102;-69
2023/12/05 19:08:55;;;;;;;17.85;9.18;;;;;;;;;;5091337;28;20057;-67
2023/12/05 19:11:22;;;;;;;12.82;8.35;;;;;;;;;;5092176;28;20026;-68
2023/12/05 19:13:48;;;;;;;16.08;7.82;;;;;;;;;;5091388;28;20085;-68
2023/12/05 19:16:16;;;;;;;19.75;9.10;;;;;;;;;;5091709;28;20036;-67
2023/12/05 19:18:42;;;;;;;12.80;8.23;;;;;;;;;;5091269;28;20052;-67
2023/12/05 19:21:08;;;;;;;13.90;8.57;;;;;;;;;;5091374;28;20062;-67
2023/12/05 19:23:34;;;;;;;15.63;8.32;;;;;;;;;;5091250;28;20074;-67
2023/12/05 19:26:00;;;;;;;11.80;7.93;;;;;;;;;;5091077;28;20035;-66
2023/12/05 19:28:26;;;;;;;16.35;7.72;;;;;;;;;;5091587;28;20031;-68
2023/12/05 19:30:51;;;;;;;18.17;8.15;;;;;;;;;;5091326;28;20383;-68
2023/12/05 19:33:17;;;;;;;19.73;8.30;;;;;;;;;;5090141;28;20020;-70
2023/12/05 19:35:44;;;;;;;15.57;8.57;;;;;;;;;;5091014;28;20032;-66
2023/12/05 19:38:11;;;;;;;14.80;8.10;;;;;;;;;;5091416;28;20024;-68
2023/12/05 19:40:36;;;;;;;17.23;8.57;;;;;;;;;;5090832;28;20028;-66
2023/12/05 19:43:04;;;;;;;17.08;8.73;;;;;;;;;;5091596;28;20054;-67
2023/12/05 19:45:30;;;;;;;16.15;9.15;;;;;;;;;;5091032;28;20040;-67
2023/12/05 19:47:56;;;;;;;18.13;8.50;;;;;;;;;;5090984;28;20077;-68
2023/12/05 19:50:23;;;;;;;16.88;9.18;;;;;;;;;;5091196;28;20126;-68
2023/12/05 19:52:49;;;;;;;12.02;8.18;;;;;;;;;;5091154;28;20051;-68
2023/12/05 19:55:15;;;;;;;14.15;7.95;;;;;;;;;;5091319;28;20047;-68
2023/12/05 19:57:40;;;;;;;16.52;8.43;;;;;;;;;;5091336;28;20086;-67
2023/12/05 20:00:06;;;;;;;17.60;8.30;;;;;;;;;;5090930;28;20028;-67
2023/12/05 20:02:32;;;;;;;15.02;7.97;;;;;;;;;;5091023;28;20027;-67
2023/12/05 20:04:57;;;;;;;18.95;8.60;;;;;;;;;;5091138;28;20044;-65
2023/12/05 20:07:23;;;;;;;14.85;8.20;;;;;;;;;;5090713;28;20019;-70
2023/12/05 20:09:49;;;;;;;16.45;8.05;;;;;;;;;;5091355;28;20032;-67
2023/12/05 20:12:15;;;;;;;17.02;8.25;;;;;;;;;;5089530;28;20358;-68
2023/12/05 20:14:40;;;;;;;16.25;8.32;;;;;;;;;;5091397;28;20069;-70
2023/12/05 20:17:06;;;;;;;14.48;8.25;;;;;;;;;;5093280;28;20043;-69
2023/12/05 20:19:31;;;;;;;15.48;7.63;;;;;;;;;;5095121;28;20468;-67
2023/12/05 20:21:57;;;;;;;15.23;8.27;;;;;;;;;;5094878;28;20020;-70
2023/12/05 20:24:22;;;;;;;15.32;7.45;;;;;;;;;;5094988;28;20032;-70
2023/12/05 20:26:48;;;;;;;13.80;8.07;;;;;;;;;;5095056;28;20059;-67
2023/12/05 20:29:13;;;;;;;15.68;8.35;;;;;;;;;;5094390;28;20380;-69
2023/12/05 20:31:39;;;;;;;18.40;8.15;;;;;;;;;;5093203;28;20145;-68
2023/12/05 20:34:04;;;;;;;15.93;9.10;;;;;;;;;;5093225;28;20039;-68
2023/12/05 20:36:30;;;;;;;15.30;7.82;;;;;;;;;;5095113;28;20093;-67
2023/12/05 20:38:55;;;;;;;15.50;8.40;;;;;;;;;;5095039;28;20181;-70
2023/12/05 20:41:21;;;;;;;13.52;8.05;;;;;;;;;;5094485;28;20132;-69
2023/12/05 20:43:47;;;;;;;20.15;8.68;;;;;;;;;;5094330;28;20026;-68
2023/12/05 20:46:14;;;;;;;12.60;7.57;;;;;;;;;;5093984;28;20042;-69
2023/12/05 20:48:40;;;;;;;12.73;7.95;;;;;;;;;;5094047;28;20162;-67
2023/12/05 20:51:06;;;;;;;16.90;8.00;;;;;;;;;;5094187;28;20035;-66
2023/12/05 20:53:32;;;;;;;18.48;8.25;;;;;;;;;;5094321;28;20032;-67
2023/12/05 20:55:58;;;;;;;21.35;8.35;;;;;;;;;;5093914;28;20443;-67
2023/12/05 20:58:24;;;;;;;14.10;8.30;;;;;;;;;;5094321;28;20028;-68
2023/12/05 21:00:50;;;;;;;13.15;7.80;;;;;;;;;;5094780;28;20024;-68
2023/12/05 21:03:15;;;;;;;13.20;7.80;;;;;;;;;;5093886;28;20031;-68
2023/12/05 21:05:41;;;;;;;17.35;8.27;;;;;;;;;;5094010;28;20024;-68
2023/12/05 21:08:13;;;;;;;13.55;8.70;;;;;;;;;;5094000;28;20039;-67
2023/12/05 21:10:39;;;;;;;18.67;8.55;;;;;;;;;;5093818;28;20051;-67
2023/12/05 21:13:05;;;;;;;15.32;8.20;;;;;;;;;;5109743;28;20068;-68
2023/12/05 21:15:31;;;;;;;16.77;7.72;;;;;;;;;;5093955;28;20039;-68
2023/12/05 21:17:56;;;;;;;15.30;7.80;;;;;;;;;;5093781;28;20039;-68
2023/12/05 21:20:22;;;;;;;17.83;7.85;;;;;;;;;;5094356;28;20032;-68
2023/12/05 21:22:48;;;;;;;18.50;7.97;;;;;;;;;;5093964;28;20252;-68
2023/12/05 21:25:13;;;;;;;17.88;8.05;;;;;;;;;;5093844;28;20449;-68
2023/12/05 21:27:39;;;;;;;22.10;7.80;;;;;;;;;;5091586;28;20048;-67
2023/12/05 21:30:05;;;;;;;19.77;8.48;;;;;;;;;;5090648;28;20062;-68
2023/12/05 21:32:31;;;;;;;24.98;9.00;;;;;;;;;;5093787;28;20111;-67
2023/12/05 21:34:57;;;;;;;18.58;8.07;;;;;;;;;;5093676;28;20123;-70
2023/12/05 21:37:23;;;;;;;24.10;8.38;;;;;;;;;;5093833;28;20102;-72
2023/12/05 21:39:49;;;;;;;20.98;7.80;;;;;;;;;;5092281;28;20373;-68
2023/12/05 21:42:14;;;;;;;19.42;8.55;;;;;;;;;;5093581;28;20032;-68
2023/12/05 21:44:40;;;;;;;26.60;8.50;;;;;;;;;;5093581;28;20080;-68
2023/12/05 21:47:09;;;;;;;26.50;8.52;;;;;;;;;;5093253;28;20042;-69
2023/12/05 21:49:35;;;;;;;15.98;8.13;;;;;;;;;;5085069;28;20048;-69
2023/12/05 21:52:04;;;;;;;17.90;8.50;;;;;;;;;;5073247;28;20032;-69
2023/12/05 21:54:30;;;;;;;22.92;7.75;;;;;;;;;;5072794;28;20048;-67
2023/12/05 21:56:55;;;;;;;15.10;7.78;;;;;;;;;;5073132;28;20025;-67
2023/12/05 21:59:22;;;;;;;17.02;8.50;;;;;;;;;;5073235;28;20021;-68
2023/12/05 22:01:49;;;;;;;18.33;8.02;;;;;;;;;;5072697;28;20033;-68
2023/12/05 22:04:15;;;;;;;15.23;8.07;;;;;;;;;;5072636;28;20029;-68
2023/12/05 22:06:40;;;;;;;18.42;8.45;;;;;;;;;;5072924;28;20036;-68
2023/12/05 22:09:06;;;;;;;22.20;8.20;;;;;;;;;;5072866;28;20021;-68
2023/12/05 22:11:31;;;;;;;20.33;7.70;;;;;;;;;;5072776;28;20024;-67
2023/12/05 22:13:57;;;;;;;15.65;7.90;;;;;;;;;;5079765;28;20387;-68
2023/12/05 22:16:22;;;;;;;17.33;8.40;;;;;;;;;;5092660;28;20763;-68
2023/12/05 22:18:48;;;;;;;14.75;7.30;;;;;;;;;;5092703;28;20031;-67
2023/12/05 22:21:14;;;;;;;15.68;7.93;;;;;;;;;;5092851;28;20114;-67
2023/12/05 22:23:40;;;;;;;18.42;7.88;;;;;;;;;;5092898;28;20107;-70
2023/12/05 22:26:09;;;;;;;15.98;8.15;;;;;;;;;;5108401;28;20115;-68
2023/12/05 22:28:35;;;;;;;15.88;7.80;;;;;;;;;;5092680;28;20354;-70
2023/12/05 22:31:01;;;;;;;14.70;7.28;;;;;;;;;;5092521;28;20023;-67
2023/12/05 22:33:27;;;;;;;20.23;7.82;;;;;;;;;;5092187;28;20039;-68
2023/12/05 22:35:52;;;;;;;15.80;7.18;;;;;;;;;;5092635;28;20107;-69
2023/12/05 22:38:18;;;;;;;22.77;8.82;;;;;;;;;;5091763;28;20493;-67
2023/12/05 22:40:43;;;;;;;14.65;7.65;;;;;;;;;;5091484;28;20028;-67
2023/12/05 22:43:09;;;;;;;17.20;8.05;;;;;;;;;;5090610;28;20016;-70
2023/12/05 22:45:35;;;;;;;18.45;7.57;;;;;;;;;;5092251;28;20036;-70
2023/12/05 22:48:01;;;;;;;15.48;7.80;;;;;;;;;;5092520;28;20122;-69
2023/12/05 22:50:26;;;;;;;18.02;7.38;;;;;;;;;;5092053;28;20495;-71
2023/12/05 22:52:52;;;;;;;19.17;8.10;;;;;;;;;;5092096;28;20036;-69
2023/12/05 22:55:21;;;;;;;17.05;8.35;;;;;;;;;;5091742;28;20054;-68
2023/12/05 22:57:49;;;;;;;17.42;8.10;;;;;;;;;;5092095;28;20111;-71
2023/12/05 23:00:23;;;;;;;17.80;8.40;;;;;;;;;;5092008;28;20032;-67
2023/12/05 23:02:55;;;;;;;19.85;8.30;;;;;;;;;;5090402;28;20691;-68
2023/12/05 23:05:24;;;;;;;14.23;8.80;;;;;;;;;;5091898;28;20064;-68
2023/12/05 23:07:50;;;;;;;17.33;8.13;;;;;;;;;;5091979;28;20348;-69
2023/12/05 23:10:17;;;;;;;23.35;9.40;;;;;;;;;;5091945;28;20028;-66
2023/12/05 23:12:43;;;;;;;17.40;8.18;;;;;;;;;;5091462;28;20039;-67
2023/12/05 23:15:12;;;;;;;21.65;7.90;;;;;;;;;;5091623;28;20133;-67
2023/12/05 23:17:38;;;;;;;13.82;7.40;;;;;;;;;;5090831;28;20050;-68
2023/12/05 23:20:04;;;;;;;19.40;8.75;;;;;;;;;;5091340;28;20496;-71
2023/12/05 23:22:30;;;;;;;16.42;8.00;;;;;;;;;;5091630;28;20031;-72
2023/12/05 23:24:55;;;;;;;20.73;7.95;;;;;;;;;;5091610;28;20522;-69
2023/12/05 23:27:24;;;;;;;15.35;7.97;;;;;;;;;;5091340;28;20039;-69
2023/12/05 23:29:50;;;;;;;25.73;8.30;;;;;;;;;;5091708;28;20085;-68
2023/12/05 23:32:15;;;;;;;17.08;8.25;;;;;;;;;;5091253;28;20049;-67
2023/12/05 23:34:41;;;;;;;18.30;8.77;;;;;;;;;;5091248;28;20051;-69
2023/12/05 23:37:07;;;;;;;14.88;7.88;;;;;;;;;;5091473;28;20480;-67
2023/12/05 23:39:33;;;;;;;25.67;8.50;;;;;;;;;;5091363;28;20056;-68
2023/12/05 23:41:59;;;;;;;16.52;7.78;;;;;;;;;;5091259;28;20024;-68
2023/12/05 23:44:24;;;;;;;14.98;8.13;;;;;;;;;;5091343;28;20020;-68
2023/12/05 23:46:50;;;;;;;18.35;8.10;;;;;;;;;;5091352;28;20468;-67
2023/12/05 23:49:16;;;;;;;15.77;8.27;;;;;;;;;;5091223;28;20020;-69
2023/12/05 23:51:42;;;;;;;16.02;7.90;;;;;;;;;;5091216;28;20089;-68
2023/12/05 23:54:07;;;;;;;15.05;7.85;;;;;;;;;;5090901;28;20036;-67
2023/12/05 23:56:33;;;;;;;15.65;7.88;;;;;;;;;;5091045;28;20487;-66
2023/12/05 23:58:59;;;;;;;16.20;7.90;;;;;;;;;;5090731;28;20052;-68
